Time;durP1;ratioP1;P1;durP2;ratioP2;P2;SDS_P1;SDS_P2;PMS_P1;PMS_P2;Temp;Humidity;BMP_temperature;BMP_pressure;BME280_temperature;BME280_humidity;BME280_pressure;Samples;Min_cycle;Max_cycle;Signal;HPM_P1;HPM_P2
2022/12/09 00:00:14;;;;;;;34.97;26.77;;;;;;;-0.04;100.00;100524.66;4983935;28;20030;-65
2022/12/09 00:02:39;;;;;;;36.30;27.80;;;;;;;-0.03;100.00;100526.41;4987659;28;20529;-65
2022/12/09 00:05:05;;;;;;;34.90;27.30;;;;;;;-0.01;100.00;100524.84;4982527;28;20035;-65
2022/12/09 00:07:30;;;;;;;35.57;28.50;;;;;;;0.01;100.00;100521.50;4980133;28;20046;-65
2022/12/09 00:09:56;;;;;;;33.73;28.00;;;;;;;0.05;100.00;100523.50;4987522;28;20839;-66
2022/12/09 00:12:21;;;;;;;34.53;27.80;;;;;;;0.08;100.00;100523.72;4987016;28;20034;-65
2022/12/09 00:14:46;;;;;;;34.70;27.57;;;;;;;0.10;100.00;100525.59;4986720;28;20038;-65
2022/12/09 00:17:11;;;;;;;33.50;28.13;;;;;;;0.09;100.00;100525.50;4986915;28;20376;-65
2022/12/09 00:19:37;;;;;;;36.43;29.27;;;;;;;0.08;100.00;100519.50;4987248;28;20065;-65
2022/12/09 00:22:02;;;;;;;32.70;27.30;;;;;;;0.09;100.00;100520.41;4986431;28;20085;-65
2022/12/09 00:24:27;;;;;;;42.07;30.03;;;;;;;0.06;100.00;100520.16;4986791;28;20038;-65
2022/12/09 00:26:52;;;;;;;35.57;28.40;;;;;;;0.07;100.00;100515.16;4986738;28;20022;-65
2022/12/09 00:29:18;;;;;;;34.90;28.73;;;;;;;0.06;100.00;100509.97;4987227;28;20493;-65
2022/12/09 00:31:43;;;;;;;37.50;29.07;;;;;;;0.03;100.00;100509.75;4986764;28;20038;-65
2022/12/09 00:34:11;;;;;;;39.10;29.67;;;;;;;0.02;100.00;100519.06;4987701;28;20478;-65
2022/12/09 00:36:36;;;;;;;39.37;30.00;;;;;;;0.00;100.00;100515.56;4987094;28;20026;-66
2022/12/09 00:39:02;;;;;;;41.63;30.37;;;;;;;-0.05;100.00;100522.84;4986620;28;20034;-65
2022/12/09 00:41:29;;;;;;;40.07;31.33;;;;;;;0.01;100.00;100516.41;4984216;28;20026;-65
2022/12/09 00:43:54;;;;;;;40.70;31.63;;;;;;;0.01;100.00;100519.84;4984144;28;20030;-65
2022/12/09 00:46:20;;;;;;;39.13;30.10;;;;;;;0.05;100.00;100518.41;4986814;28;20062;-65
2022/12/09 00:48:45;;;;;;;42.40;31.40;;;;;;;0.06;100.00;100515.97;4986947;28;20037;-65
2022/12/09 00:51:14;;;;;;;42.47;32.47;;;;;;;0.07;100.00;100521.94;4985740;28;20176;-65
2022/12/09 00:53:39;;;;;;;43.70;31.80;;;;;;;0.02;100.00;100513.09;4975633;28;20022;-65
2022/12/09 00:56:05;;;;;;;43.50;32.20;;;;;;;0.03;100.00;100519.97;4987607;28;20443;-65
2022/12/09 00:58:30;;;;;;;46.30;34.77;;;;;;;0.05;100.00;100518.41;4986184;28;20022;-65
2022/12/09 01:00:56;;;;;;;41.87;33.27;;;;;;;0.06;100.00;100518.50;4986682;28;20423;-65
2022/12/09 01:03:21;;;;;;;46.47;34.03;;;;;;;0.08;100.00;100510.97;4987904;28;20069;-65
2022/12/09 01:05:47;;;;;;;46.20;32.87;;;;;;;0.11;100.00;100518.81;4990612;28;20041;-65
2022/12/09 01:08:13;;;;;;;42.50;32.30;;;;;;;0.11;100.00;100511.16;4990392;28;20411;-65
2022/12/09 01:10:40;;;;;;;42.97;32.47;;;;;;;0.11;100.00;100516.25;4990503;28;20085;-65
2022/12/09 01:13:07;;;;;;;47.40;34.97;;;;;;;0.11;100.00;100514.63;4988593;28;20394;-65
2022/12/09 01:15:32;;;;;;;42.83;33.70;;;;;;;0.10;100.00;100515.41;4990287;28;20073;-65
2022/12/09 01:17:58;;;;;;;43.67;31.60;;;;;;;0.12;100.00;100520.59;4990402;28;20018;-65
2022/12/09 01:20:23;;;;;;;44.70;31.40;;;;;;;0.13;100.00;100522.38;4989671;28;20022;-65
2022/12/09 01:22:48;;;;;;;47.90;33.23;;;;;;;0.14;100.00;100524.16;4989928;28;20030;-65
2022/12/09 01:25:14;;;;;;;47.07;35.47;;;;;;;0.17;100.00;100523.47;4990110;28;20061;-65
2022/12/09 01:27:39;;;;;;;45.33;32.77;;;;;;;0.13;100.00;100524.03;4990189;28;20062;-65
2022/12/09 01:30:08;;;;;;;49.43;35.90;;;;;;;0.11;100.00;100526.47;4989294;28;20033;-65
2022/12/09 01:32:33;;;;;;;50.20;36.23;;;;;;;0.14;100.00;100523.25;4990446;28;20026;-65
2022/12/09 01:34:58;;;;;;;45.60;35.77;;;;;;;0.16;100.00;100525.16;4989432;28;20053;-65
2022/12/09 01:37:24;;;;;;;45.03;34.63;;;;;;;0.18;100.00;100526.09;4990303;28;20081;-65
2022/12/09 01:39:49;;;;;;;49.10;36.33;;;;;;;0.20;100.00;100528.75;4989229;28;20472;-66
2022/12/09 01:42:20;;;;;;;47.93;36.43;;;;;;;0.25;100.00;100531.66;4990650;28;20041;-65
2022/12/09 01:45:19;;;;;;;48.13;35.55;;;;;;;0.23;100.00;100518.81;4988881;28;20593;-65
2022/12/09 01:47:47;;;;;;;48.50;35.63;;;;;;;0.22;100.00;100523.00;4988764;28;20497;-65
2022/12/09 01:50:13;;;;;;;51.30;37.10;;;;;;;0.26;100.00;100528.31;4989507;28;20106;-65
2022/12/09 01:52:38;;;;;;;49.50;35.27;;;;;;;0.24;100.00;100525.66;4989617;28;20181;-65
2022/12/09 01:55:05;;;;;;;51.43;35.43;;;;;;;0.26;100.00;100529.19;4989359;28;20019;-66
2022/12/09 01:57:31;;;;;;;47.70;34.70;;;;;;;0.28;100.00;100526.75;4989292;28;20112;-65
2022/12/09 01:59:56;;;;;;;48.40;36.60;;;;;;;0.29;100.00;100528.53;4989862;28;20105;-65
2022/12/09 02:02:23;;;;;;;50.53;36.80;;;;;;;0.32;100.00;100528.75;4989346;28;20037;-65
2022/12/09 02:04:49;;;;;;;49.27;35.30;;;;;;;0.34;100.00;100532.28;4981849;28;20070;-65
2022/12/09 02:07:17;;;;;;;50.13;35.93;;;;;;;0.35;100.00;100529.84;4988825;28;20073;-65
2022/12/09 02:09:42;;;;;;;50.97;37.83;;;;;;;0.35;100.00;100528.94;4989606;28;20080;-65
2022/12/09 02:12:20;;;;;;;53.20;36.67;;;;;;;0.35;100.00;100532.38;4989158;28;20014;-65
2022/12/09 02:15:07;;;;;;;52.17;36.53;;;;;;;0.37;100.00;100532.50;4988586;28;20493;-66
2022/12/09 02:17:44;;;;;;;48.77;35.70;;;;;;;0.37;100.00;100532.50;4989111;28;20077;-65
2022/12/09 02:20:25;;;;;;;48.67;34.93;;;;;;;0.39;100.00;100530.94;4989165;28;20478;-65
2022/12/09 02:22:57;;;;;;;;;;;;;;;0.41;100.00;100533.59;4989700;28;20061;-65
2022/12/09 02:25:46;;;;;;;49.27;35.47;;;;;;;0.42;100.00;100533.69;4987095;28;19910;-65
2022/12/09 02:28:33;;;;;;;51.13;37.17;;;;;;;0.41;100.00;100524.28;4988730;28;20026;-65
2022/12/09 02:31:14;;;;;;;54.00;37.50;;;;;;;0.41;100.00;100524.28;4980132;28;20077;-65
2022/12/09 02:33:55;;;;;;;57.90;37.70;;;;;;;0.43;100.00;100525.25;4987987;28;20038;-65
2022/12/09 02:36:25;;;;;;;52.63;35.47;;;;;;;0.43;100.00;100527.78;4988254;28;20475;-65
2022/12/09 02:38:51;;;;;;;50.30;35.07;;;;;;;0.45;100.00;100526.22;4988999;28;20046;-65
2022/12/09 02:41:22;;;;;;;55.73;38.30;;;;;;;0.46;100.00;100517.81;4988784;28;20029;-65
2022/12/09 02:43:53;;;;;;;53.65;37.67;;;;;;;0.46;100.00;100522.91;4988749;28;20054;-65
2022/12/09 02:46:19;;;;;;;54.90;37.75;;;;;;;0.50;100.00;100523.13;4988842;28;20073;-65
2022/12/09 02:48:51;;;;;;;58.00;38.43;;;;;;;0.50;100.00;100518.03;4987263;28;20034;-65
2022/12/09 02:51:19;;;;;;;56.73;38.33;;;;;;;0.51;100.00;100520.66;4988838;28;20314;-65
2022/12/09 02:53:49;;;;;;;55.87;38.43;;;;;;;0.51;100.00;100520.66;4988005;28;20034;-65
2022/12/09 02:56:16;;;;;;;60.30;39.17;;;;;;;0.51;100.00;100515.56;4983244;28;20021;-65
2022/12/09 02:58:42;;;;;;;58.73;39.43;;;;;;;0.51;100.00;100522.31;4988261;28;20018;-65
2022/12/09 03:01:48;;;;;;;61.90;40.47;;;;;;;0.51;100.00;100522.31;4984118;28;20026;-65
2022/12/09 03:04:19;;;;;;;65.97;41.33;;;;;;;0.51;100.00;100520.66;4961343;28;20089;-65
2022/12/09 03:06:52;;;;;;;63.33;40.95;;;;;;;0.51;100.00;100515.56;4987486;28;20036;-65
2022/12/09 03:09:32;;;;;;;70.00;40.50;;;;;;;0.51;100.00;100514.69;4987970;28;20026;-65
2022/12/09 03:12:03;;;;;;;75.67;42.87;;;;;;;0.49;100.00;100506.06;4988652;28;20034;-65
2022/12/09 03:14:36;;;;;;;67.95;41.40;;;;;;;0.49;100.00;100511.16;4984606;28;20034;-65
2022/12/09 03:17:18;;;;;;;75.03;43.13;;;;;;;0.47;100.00;100514.47;4985872;28;20034;-65
2022/12/09 03:19:51;;;;;;;77.47;42.90;;;;;;;0.46;100.00;100507.63;4982559;28;20503;-65
2022/12/09 03:22:22;;;;;;;76.90;45.87;;;;;;;0.44;100.00;100504.06;4986247;28;20034;-65
2022/12/09 03:25:05;;;;;;;73.57;43.08;;;;;;;0.43;100.00;100499.75;4987791;28;20026;-65
2022/12/09 03:27:39;;;;;;;76.00;42.10;;;;;;;0.41;100.00;100498.78;4986356;28;20049;-65
2022/12/09 03:30:07;;;;;;;78.77;44.70;;;;;;;0.39;100.00;100495.25;4981586;28;20034;-65
2022/12/09 03:32:35;;;;;;;78.07;45.20;;;;;;;0.38;100.00;100495.13;4987379;28;20044;-65
2022/12/09 03:35:10;;;;;;;79.57;44.27;;;;;;;0.38;100.00;100497.69;4987902;28;20038;-65
2022/12/09 03:37:39;;;;;;;79.33;45.30;;;;;;;0.37;100.00;100494.25;4982717;28;20022;-65
2022/12/09 03:40:07;;;;;;;78.30;44.13;;;;;;;0.32;100.00;100493.06;4986703;28;20486;-65
2022/12/09 03:42:38;;;;;;;85.03;45.77;;;;;;;0.32;100.00;100493.06;4987658;28;20137;-65
2022/12/09 03:45:10;;;;;;;77.25;45.80;;;;;;;0.31;100.00;100487.06;4987479;28;20105;-65
2022/12/09 03:47:36;;;;;;;87.33;45.60;;;;;;;0.31;100.00;100493.81;4986702;28;20030;-65
2022/12/09 03:50:03;;;;;;;88.97;47.37;;;;;;;0.25;100.00;100493.41;4987409;28;20022;-65
2022/12/09 03:52:39;;;;;;;87.87;46.50;;;;;;;0.22;100.00;100484.78;4987097;28;20042;-65
2022/12/09 03:55:12;;;;;;;78.07;43.70;;;;;;;0.23;100.00;100483.97;4987520;28;20035;-65
2022/12/09 03:57:41;;;;;;;68.37;43.47;;;;;;;0.26;100.00;100487.53;4986501;28;20485;-65
2022/12/09 04:00:07;;;;;;;70.07;43.33;;;;;;;0.28;100.00;100485.97;4987752;28;20337;-65
2022/12/09 04:02:33;;;;;;;67.17;42.33;;;;;;;0.30;100.00;100484.41;4987600;28;20027;-65
2022/12/09 04:04:58;;;;;;;60.50;40.83;;;;;;;0.28;100.00;100491.06;4987320;28;20410;-65
2022/12/09 04:07:23;;;;;;;59.20;41.00;;;;;;;0.26;100.00;100492.63;4987575;28;20034;-65
2022/12/09 04:09:49;;;;;;;57.03;40.60;;;;;;;0.21;100.00;100485.56;4988099;28;20030;-65
2022/12/09 04:12:14;;;;;;;58.40;41.07;;;;;;;0.21;100.00;100484.66;4987479;28;20056;-65
2022/12/09 04:14:39;;;;;;;57.03;41.07;;;;;;;0.23;100.00;100483.13;4987189;28;20394;-65
2022/12/09 04:17:05;;;;;;;59.17;41.30;;;;;;;0.23;100.00;100478.88;4987674;28;20474;-65
2022/12/09 04:19:30;;;;;;;61.03;42.57;;;;;;;0.25;100.00;100480.66;4987369;28;20380;-65
2022/12/09 04:21:55;;;;;;;63.50;42.43;;;;;;;0.26;100.00;100478.22;4987370;28;20046;-65
2022/12/09 04:24:21;;;;;;;66.60;43.30;;;;;;;0.25;100.00;100481.56;4987720;28;20467;-65
2022/12/09 04:26:46;;;;;;;61.50;41.70;;;;;;;0.24;100.00;100479.78;4986998;28;20061;-65
2022/12/09 04:29:12;;;;;;;64.37;41.80;;;;;;;0.24;100.00;100477.22;4987613;28;20027;-65
2022/12/09 04:31:38;;;;;;;61.20;40.17;;;;;;;0.25;100.00;100470.47;4986634;28;20106;-65
2022/12/09 04:34:03;;;;;;;60.97;41.80;;;;;;;0.26;100.00;100480.75;4986865;28;20113;-65
2022/12/09 04:36:29;;;;;;;66.60;41.47;;;;;;;0.26;100.00;100473.13;4985071;28;20462;-65
2022/12/09 04:38:54;;;;;;;62.77;41.43;;;;;;;0.30;100.00;100474.22;4990138;28;20030;-65
2022/12/09 04:41:20;;;;;;;61.63;42.17;;;;;;;0.28;100.00;100470.66;4991000;28;20030;-65
2022/12/09 04:43:45;;;;;;;64.13;40.90;;;;;;;0.29;100.00;100477.56;4990797;28;20061;-65
2022/12/09 04:46:13;;;;;;;55.30;40.00;;;;;;;0.29;100.00;100464.81;4990477;28;20077;-65
2022/12/09 04:48:38;;;;;;;61.67;43.63;;;;;;;0.30;100.00;100469.13;4991108;28;20642;-65
2022/12/09 04:51:05;;;;;;;66.20;40.27;;;;;;;0.22;100.00;100472.03;4990819;28;20026;-65
2022/12/09 04:53:31;;;;;;;56.47;40.00;;;;;;;0.21;100.00;100465.16;4991472;28;20091;-65
2022/12/09 04:56:09;;;;;;;56.90;39.80;;;;;;;0.21;100.00;100470.25;4990675;28;20061;-65
2022/12/09 04:58:35;;;;;;;60.17;41.23;;;;;;;0.19;100.00;100482.03;4990248;28;20489;-65
2022/12/09 05:01:08;;;;;;;60.67;41.03;;;;;;;0.18;100.00;100475.13;4990674;28;20101;-65
2022/12/09 05:03:34;;;;;;;60.27;42.60;;;;;;;0.17;100.00;100477.59;4976075;28;20035;-65
2022/12/09 05:06:12;;;;;;;58.77;39.70;;;;;;;0.15;100.00;100480.03;4990369;28;20495;-65
2022/12/09 05:08:38;;;;;;;59.37;40.53;;;;;;;0.15;100.00;100482.56;4990421;28;20456;-65
2022/12/09 05:11:04;;;;;;;56.33;39.07;;;;;;;0.16;100.00;100481.81;4989181;28;20467;-65
2022/12/09 05:13:30;;;;;;;60.80;40.07;;;;;;;0.17;100.00;100482.69;4978610;28;20085;-65
2022/12/09 05:16:03;;;;;;;59.90;39.67;;;;;;;0.18;100.00;100476.81;4978701;28;20482;-65
2022/12/09 05:18:29;;;;;;;58.87;40.13;;;;;;;0.18;100.00;100484.47;4990226;28;20028;-65
2022/12/09 05:20:54;;;;;;;62.20;39.83;;;;;;;0.16;100.00;100473.28;4990176;28;20441;-65
2022/12/09 05:23:20;;;;;;;57.23;41.03;;;;;;;0.16;100.00;100481.81;4989876;28;20041;-65
2022/12/09 05:25:46;;;;;;;61.53;39.60;;;;;;;0.17;100.00;100481.03;4990388;28;20463;-65
2022/12/09 05:28:11;;;;;;;55.33;38.63;;;;;;;0.16;100.00;100476.72;4989670;28;20376;-65
2022/12/09 05:30:37;;;;;;;60.80;39.97;;;;;;;0.17;100.00;100478.47;4977915;28;20446;-65
2022/12/09 05:33:02;;;;;;;59.37;39.93;;;;;;;0.17;100.00;100472.47;4990087;28;20022;-65
2022/12/09 05:35:27;;;;;;;54.20;37.87;;;;;;;0.15;100.00;100474.03;4989760;28;20042;-65
2022/12/09 05:37:53;;;;;;;62.03;42.00;;;;;;;0.14;100.00;100477.38;4990084;28;20524;-65
2022/12/09 05:40:18;;;;;;;57.90;37.77;;;;;;;0.14;100.00;100478.28;4989394;28;20026;-65
2022/12/09 05:42:43;;;;;;;60.97;40.00;;;;;;;0.11;100.00;100478.03;4989972;28;20132;-65
2022/12/09 05:45:09;;;;;;;55.47;36.97;;;;;;;0.09;100.00;100485.59;4989346;28;20069;-65
2022/12/09 05:47:35;;;;;;;54.30;40.30;;;;;;;0.10;100.00;100486.47;4989541;28;20449;-65
2022/12/09 05:50:03;;;;;;;60.87;40.23;;;;;;;0.09;100.00;100483.03;4988548;28;20054;-65
2022/12/09 05:52:28;;;;;;;59.00;40.70;;;;;;;0.10;100.00;100482.28;4989414;28;20022;-65
2022/12/09 05:54:54;;;;;;;57.13;39.17;;;;;;;0.11;100.00;100470.38;4989036;28;20034;-65
2022/12/09 05:57:19;;;;;;;60.23;38.93;;;;;;;0.12;100.00;100469.63;4990054;28;20533;-65
2022/12/09 05:59:45;;;;;;;60.27;37.90;;;;;;;0.13;100.00;100475.63;4989402;28;20509;-65
2022/12/09 06:02:10;;;;;;;62.40;39.50;;;;;;;0.11;100.00;100471.28;4989396;28;20125;-65
2022/12/09 06:04:35;;;;;;;59.53;40.33;;;;;;;0.11;100.00;100472.94;4988719;28;20030;-65
2022/12/09 06:07:00;;;;;;;58.33;37.83;;;;;;;0.12;100.00;100467.09;4989602;28;20116;-65
2022/12/09 06:09:26;;;;;;;57.30;37.90;;;;;;;0.10;100.00;100466.97;4989002;28;20488;-65
2022/12/09 06:11:51;;;;;;;59.03;39.10;;;;;;;0.10;100.00;100472.09;4989430;28;20026;-65
2022/12/09 06:14:16;;;;;;;58.27;39.53;;;;;;;0.11;100.00;100467.84;4988206;28;20026;-65
2022/12/09 06:16:42;;;;;;;57.50;36.73;;;;;;;0.10;100.00;100469.53;4989444;28;20030;-65
2022/12/09 06:19:11;;;;;;;59.20;38.53;;;;;;;0.08;100.00;100463.44;4988531;28;20054;-65
2022/12/09 06:21:39;;;;;;;55.40;37.77;;;;;;;0.08;100.00;100468.53;4985435;28;20085;-65
2022/12/09 06:24:04;;;;;;;59.53;39.60;;;;;;;0.09;100.00;100469.44;4972149;28;20039;-64
2022/12/09 06:26:29;;;;;;;56.57;37.80;;;;;;;0.08;100.00;100467.66;4983173;28;20053;-65
2022/12/09 06:28:55;;;;;;;61.00;39.73;;;;;;;0.10;100.00;100471.19;4988370;28;20798;-65
2022/12/09 06:31:21;;;;;;;55.77;38.17;;;;;;;0.09;100.00;100477.06;4989021;28;20085;-65
2022/12/09 06:33:46;;;;;;;60.07;38.30;;;;;;;0.07;100.00;100470.97;4988475;28;20030;-65
2022/12/09 06:36:12;;;;;;;59.40;39.10;;;;;;;0.07;100.00;100470.97;4977574;28;20030;-65
2022/12/09 06:38:37;;;;;;;57.93;40.13;;;;;;;-0.04;100.00;100471.13;4988608;28;20050;-65
2022/12/09 06:41:11;;;;;;;61.97;41.10;;;;;;;-0.06;100.00;100474.34;4985983;28;20099;-65
2022/12/09 06:43:37;;;;;;;60.20;39.00;;;;;;;-0.04;100.00;100476.22;4988358;28;20084;-65
2022/12/09 06:46:09;;;;;;;60.47;39.90;;;;;;;-0.04;100.00;100468.59;4986594;28;20046;-65
2022/12/09 06:48:35;;;;;;;65.97;41.63;;;;;;;-0.03;100.00;100470.34;4988415;28;20081;-65
2022/12/09 06:51:00;;;;;;;64.40;40.50;;;;;;;-0.03;100.00;100469.44;4985997;28;20482;-65
2022/12/09 06:53:25;;;;;;;60.80;40.40;;;;;;;-0.05;100.00;100473.56;4988726;28;20026;-66
2022/12/09 06:55:50;;;;;;;63.07;41.23;;;;;;;-0.06;100.00;100472.69;4988168;28;20360;-65
2022/12/09 06:58:16;;;;;;;60.47;40.10;;;;;;;-0.19;100.00;100472.59;4987829;28;20037;-65
2022/12/09 07:00:41;;;;;;;62.03;39.93;;;;;;;-0.22;100.00;100470.75;4982752;28;20045;-65
2022/12/09 07:03:06;;;;;;;62.53;40.93;;;;;;;-0.22;100.00;100468.19;4988251;28;20022;-65
2022/12/09 07:05:31;;;;;;;61.23;41.70;;;;;;;-0.21;100.00;100479.25;4987067;28;20026;-65
2022/12/09 07:07:57;;;;;;;58.73;40.13;;;;;;;-0.31;100.00;100478.63;4985762;28;20299;-65
2022/12/09 07:10:22;;;;;;;64.70;40.23;;;;;;;-0.33;100.00;100484.38;4987609;28;20104;-65
2022/12/09 07:12:47;;;;;;;66.80;41.00;;;;;;;-0.34;100.00;100480.94;4987720;28;20044;-65
2022/12/09 07:15:13;;;;;;;67.27;40.53;;;;;;;-0.34;100.00;100486.03;4987720;28;20446;-65
2022/12/09 07:17:38;;;;;;;68.20;40.67;;;;;;;-0.45;100.00;100484.41;4988250;28;20109;-65
2022/12/09 07:20:04;;;;;;;66.30;42.13;;;;;;;-0.51;100.00;100490.81;4987585;28;20084;-65
2022/12/09 07:22:32;;;;;;;60.70;39.93;;;;;;;-0.58;100.00;100488.63;4987293;28;20056;-65
2022/12/09 07:24:57;;;;;;;67.40;38.93;;;;;;;-0.56;100.00;100497.25;4985306;28;20376;-66
2022/12/09 07:27:22;;;;;;;70.80;43.23;;;;;;;-0.52;100.00;100499.22;4986166;28;20069;-65
2022/12/09 07:29:47;;;;;;;65.67;40.57;;;;;;;-0.47;100.00;100501.22;4984766;28;20347;-65
2022/12/09 07:32:13;;;;;;;71.50;42.47;;;;;;;-0.44;100.00;100493.78;4985814;28;20030;-65
2022/12/09 07:34:38;;;;;;;68.53;40.60;;;;;;;-0.46;100.00;100500.44;4985677;28;20022;-65
2022/12/09 07:37:04;;;;;;;74.83;43.20;;;;;;;-0.45;100.00;100499.69;4984664;28;20046;-65
2022/12/09 07:39:29;;;;;;;66.47;41.37;;;;;;;-0.46;100.00;100502.97;4985346;28;20383;-65
2022/12/09 07:41:56;;;;;;;68.60;40.30;;;;;;;-0.45;100.00;100499.69;4988002;28;20038;-65
2022/12/09 07:44:22;;;;;;;68.70;42.07;;;;;;;-0.50;100.00;100492.59;4976882;28;20034;-65
2022/12/09 07:46:48;;;;;;;66.97;40.43;;;;;;;-0.51;100.00;100498.47;4985851;28;20089;-66
2022/12/09 07:49:14;;;;;;;64.83;40.83;;;;;;;-0.52;100.00;100506.88;4987673;28;20061;-65
2022/12/09 07:51:40;;;;;;;65.13;39.97;;;;;;;-0.50;100.00;100510.41;4987083;28;20419;-65
2022/12/09 07:54:05;;;;;;;65.07;40.03;;;;;;;-0.45;100.00;100514.97;4986946;28;20044;-65
2022/12/09 07:56:30;;;;;;;59.37;38.73;;;;;;;-0.47;100.00;100514.84;4986921;28;20022;-65
2022/12/09 07:58:56;;;;;;;61.50;40.63;;;;;;;-0.43;100.00;100515.97;4985783;28;20030;-64
2022/12/09 08:01:24;;;;;;;64.37;41.07;;;;;;;-0.52;100.00;100514.50;4986185;28;20034;-65
2022/12/09 08:03:50;;;;;;;64.30;39.07;;;;;;;-0.51;100.00;100511.19;4987312;28;20033;-65
2022/12/09 08:06:18;;;;;;;65.63;40.63;;;;;;;-0.50;100.00;100512.94;4986286;28;20026;-65
2022/12/09 08:08:44;;;;;;;60.63;40.40;;;;;;;-0.50;100.00;100512.94;4982202;28;20037;-65
2022/12/09 08:11:21;;;;;;;64.70;38.80;;;;;;;-0.48;100.00;100510.50;4986616;28;20258;-65
2022/12/09 08:13:47;;;;;;;59.87;39.67;;;;;;;-0.49;100.00;100518.94;4986671;28;20041;-65
2022/12/09 08:16:15;;;;;;;61.53;39.17;;;;;;;-0.52;100.00;100516.19;4987509;28;20471;-65
2022/12/09 08:18:41;;;;;;;64.63;40.50;;;;;;;-0.51;100.00;100517.94;4987136;28;20113;-65
2022/12/09 08:21:09;;;;;;;67.20;40.23;;;;;;;-0.49;100.00;100514.72;4987477;28;20026;-65
2022/12/09 08:23:35;;;;;;;70.80;42.27;;;;;;;-0.46;100.00;100516.59;4985930;28;20022;-65
2022/12/09 08:26:00;;;;;;;67.07;40.90;;;;;;;-0.47;100.00;100512.31;4987609;28;20030;-65
2022/12/09 08:28:27;;;;;;;65.97;41.17;;;;;;;-0.48;100.00;100513.06;4987097;28;20038;-65
2022/12/09 08:30:52;;;;;;;68.27;40.93;;;;;;;-0.45;100.00;100512.41;4987129;28;20026;-65
2022/12/09 08:33:18;;;;;;;66.33;41.87;;;;;;;-0.42;100.00;100517.72;4986980;28;20026;-66
2022/12/09 08:35:43;;;;;;;69.30;41.03;;;;;;;-0.40;100.00;100519.59;4986848;28;20324;-65
2022/12/09 08:38:09;;;;;;;74.27;44.13;;;;;;;-0.41;100.00;100515.28;4987749;28;20014;-65
2022/12/09 08:40:35;;;;;;;76.67;45.77;;;;;;;-0.40;100.00;100516.16;4987555;28;20026;-65
2022/12/09 08:43:07;;;;;;;69.37;42.93;;;;;;;-0.39;100.00;100515.38;4986920;28;20506;-65
2022/12/09 08:45:37;;;;;;;67.33;43.50;;;;;;;-0.37;100.00;100509.63;4981508;28;20050;-65
2022/12/09 08:48:02;;;;;;;72.77;43.73;;;;;;;-0.39;100.00;100511.19;4987105;28;20494;-65
2022/12/09 08:50:28;;;;;;;75.30;43.60;;;;;;;-0.35;100.00;100499.53;4987621;28;20084;-65
2022/12/09 08:52:53;;;;;;;76.00;44.10;;;;;;;-0.37;100.00;100504.53;4986741;28;20387;-65
2022/12/09 08:55:18;;;;;;;75.43;44.23;;;;;;;-0.31;100.00;100504.09;4986957;28;20031;-65
2022/12/09 08:57:43;;;;;;;71.27;44.57;;;;;;;-0.25;100.00;100504.50;4987552;28;20328;-65
2022/12/09 09:00:10;;;;;;;77.80;44.40;;;;;;;-0.18;100.00;100510.06;4986396;28;20068;-65
2022/12/09 09:02:35;;;;;;;76.20;46.73;;;;;;;-0.16;100.00;100505.91;4977669;28;20069;-65
2022/12/09 09:05:00;;;;;;;75.07;46.40;;;;;;;-0.11;100.00;100504.59;4981842;28;20045;-65
2022/12/09 09:07:25;;;;;;;80.50;47.03;;;;;;;-0.04;100.00;100505.91;4986098;28;20398;-65
2022/12/09 09:09:51;;;;;;;82.27;47.37;;;;;;;0.02;100.00;100511.41;4986872;28;20018;-65
2022/12/09 09:12:16;;;;;;;79.60;46.00;;;;;;;0.05;100.00;100510.75;4986952;28;20069;-65
2022/12/09 09:14:41;;;;;;;73.40;44.33;;;;;;;0.04;100.00;100516.63;4986487;28;20026;-65
2022/12/09 09:17:07;;;;;;;77.03;44.60;;;;;;;0.01;100.00;100517.31;4987040;28;20349;-65
2022/12/09 09:19:32;;;;;;;71.13;42.67;;;;;;;0.02;100.00;100523.28;4985107;28;20026;-65
2022/12/09 09:21:57;;;;;;;69.10;43.00;;;;;;;0.03;100.00;100523.41;4986655;28;20033;-65
2022/12/09 09:24:24;;;;;;;68.93;45.17;;;;;;;-0.03;100.00;100530.59;4986969;28;20022;-65
2022/12/09 09:26:51;;;;;;;71.13;41.87;;;;;;;-0.02;100.00;100533.25;4990356;28;20026;-65
2022/12/09 09:29:18;;;;;;;69.53;40.50;;;;;;;-0.06;100.00;100531.28;4988671;28;20030;-65
2022/12/09 09:31:47;;;;;;;73.37;41.10;;;;;;;-0.03;100.00;100534.03;4989802;28;20390;-65
2022/12/09 09:34:12;;;;;;;67.30;41.47;;;;;;;-0.01;100.00;100524.84;4990254;28;20310;-65
2022/12/09 09:36:38;;;;;;;66.83;40.17;;;;;;;0.06;100.00;100530.34;4990039;28;20054;-65
2022/12/09 09:39:04;;;;;;;65.57;40.63;;;;;;;0.08;100.00;100524.59;4990084;28;20022;-65
2022/12/09 09:41:41;;;;;;;65.30;40.40;;;;;;;0.10;100.00;100527.25;4990253;28;20482;-65
2022/12/09 09:44:15;;;;;;;63.23;39.20;;;;;;;0.11;100.00;100523.91;4989011;28;20085;-65
2022/12/09 09:46:45;;;;;;;60.93;37.07;;;;;;;0.11;100.00;100526.47;4984881;28;20046;-65
2022/12/09 09:49:44;;;;;;;58.23;37.07;;;;;;;0.08;100.00;100523.72;4989796;28;20018;-65
2022/12/09 09:52:29;;;;;;;64.10;36.83;;;;;;;0.10;100.00;100522.16;4967728;28;20038;-65
2022/12/09 09:54:55;;;;;;;55.87;34.83;;;;;;;0.12;100.00;100520.59;4989555;28;20456;-65
2022/12/09 09:57:48;;;;;;;59.27;35.33;;;;;;;0.10;100.00;100517.06;4989963;28;20034;-65
2022/12/09 10:00:22;;;;;;;62.40;36.13;;;;;;;0.06;100.00;100517.63;4984462;28;20076;-65
2022/12/09 10:03:08;;;;;;;53.60;33.27;;;;;;;0.05;100.00;100519.31;4989774;28;20030;-65
2022/12/09 10:05:57;;;;;;;53.57;35.47;;;;;;;0.09;100.00;100510.22;4980264;28;20467;-65
2022/12/09 10:08:32;;;;;;;57.13;34.97;;;;;;;0.16;100.00;100517.50;4988055;28;20045;-65
2022/12/09 10:11:25;;;;;;;55.50;35.90;;;;;;;0.23;100.00;100529.00;4989238;28;20041;-65
2022/12/09 10:14:14;;;;;;;54.23;35.07;;;;;;;0.27;100.00;100530.09;4988916;28;20114;-65
2022/12/09 10:17:21;;;;;;;59.17;34.30;;;;;;;0.17;100.00;100529.44;4989031;28;20026;-65
2022/12/09 10:19:54;;;;;;;57.73;34.33;;;;;;;0.18;100.00;100518.47;4986598;28;20077;-65
2022/12/09 10:22:22;;;;;;;59.53;34.47;;;;;;;0.10;100.00;100527.25;4989107;28;20506;-65
2022/12/09 10:24:53;;;;;;;54.40;32.07;;;;;;;0.13;100.00;100526.59;4988832;28;20026;-65
2022/12/09 10:27:53;;;;;;;53.90;32.20;;;;;;;0.13;100.00;100521.50;4976115;28;20042;-65
2022/12/09 10:30:19;;;;;;;52.87;32.97;;;;;;;0.11;100.00;100524.81;4988487;28;20046;-65
2022/12/09 10:32:44;;;;;;;53.90;33.00;;;;;;;-0.01;100.00;100522.31;4989503;28;20471;-65
2022/12/09 10:35:17;;;;;;;55.87;33.03;;;;;;;0.05;100.00;100521.84;4987908;28;20549;-65
2022/12/09 10:37:43;;;;;;;56.13;34.80;;;;;;;0.13;100.00;100526.59;4989098;28;20084;-65
2022/12/09 10:40:08;;;;;;;57.50;33.07;;;;;;;0.17;100.00;100516.72;4988570;28;20029;-65
2022/12/09 10:45:26;;;;;;;56.53;32.63;;;;;;;0.22;100.00;100517.00;4976989;28;20435;-66
2022/12/09 10:47:52;;;;;;;50.53;33.67;;;;;;;0.30;100.00;100515.00;4988176;28;20034;-65
2022/12/09 10:50:31;;;;;;;55.83;33.83;;;;;;;0.35;100.00;100513.66;4988907;28;20513;-65
2022/12/09 10:53:04;;;;;;;51.70;32.50;;;;;;;0.39;100.00;100515.63;4988235;28;20030;-66
2022/12/09 10:55:36;;;;;;;55.77;31.67;;;;;;;0.37;100.00;100516.28;4987977;28;20038;-65
2022/12/09 10:58:23;;;;;;;53.97;30.50;;;;;;;0.41;100.00;100508.97;4981929;28;20030;-65
2022/12/09 11:01:07;;;;;;;45.07;29.07;;;;;;;0.39;100.00;100513.09;4982455;28;20034;-65
2022/12/09 11:03:52;;;;;;;45.83;30.77;;;;;;;0.36;100.00;100507.75;4988593;28;20037;-65
2022/12/09 11:06:25;;;;;;;49.23;29.50;;;;;;;0.32;100.00;100508.34;4988649;28;20121;-65
2022/12/09 11:08:59;;;;;;;50.93;30.13;;;;;;;0.23;100.00;100501.81;4988450;28;20030;-65
2022/12/09 11:11:46;;;;;;;49.33;30.80;;;;;;;0.25;100.00;100506.16;4987928;28;20040;-65
2022/12/09 11:14:30;;;;;;;49.07;29.53;;;;;;;0.27;100.00;100514.81;4988551;28;20026;-65
2022/12/09 11:17:16;;;;;;;45.70;28.73;;;;;;;0.21;100.00;100505.94;4988375;28;20426;-65